sensor_id;sensor_type;location;lat;lon;timestamp;P1;durP1;ratioP1;P2;durP2;ratioP2
7215;SDS011;3649;48.798;9.798;2022-07-23T00:00:19;7.00;;;6.30;;
7215;SDS011;3649;48.798;9.798;2022-07-23T00:02:46;7.20;;;6.53;;
7215;SDS011;3649;48.798;9.798;2022-07-23T00:05:14;6.67;;;6.13;;
7215;SDS011;3649;48.798;9.798;2022-07-23T00:07:41;6.97;;;6.20;;
7215;SDS011;3649;48.798;9.798;2022-07-23T00:10:08;7.73;;;6.40;;
7215;SDS011;3649;48.798;9.798;2022-07-23T00:12:36;8.17;;;5.57;;
7215;SDS011;3649;48.798;9.798;2022-07-23T00:15:17;5.80;;;5.30;;
7215;SDS011;3649;48.798;9.798;2022-07-23T00:17:45;6.47;;;5.87;;
7215;SDS011;3649;48.798;9.798;2022-07-23T00:20:12;6.57;;;5.73;;
7215;SDS011;3649;48.798;9.798;2022-07-23T00:22:46;5.97;;;5.37;;
7215;SDS011;3649;48.798;9.798;2022-07-23T00:25:18;6.60;;;6.00;;
7215;SDS011;3649;48.798;9.798;2022-07-23T00:27:55;6.60;;;6.00;;
7215;SDS011;3649;48.798;9.798;2022-07-23T00:30:23;6.50;;;5.90;;
7215;SDS011;3649;48.798;9.798;2022-07-23T00:32:54;9.97;;;6.50;;
7215;SDS011;3649;48.798;9.798;2022-07-23T00:35:24;6.47;;;5.97;;
7215;SDS011;3649;48.798;9.798;2022-07-23T00:37:53;9.23;;;6.33;;
7215;SDS011;3649;48.798;9.798;2022-07-23T00:40:21;6.57;;;5.50;;
7215;SDS011;3649;48.798;9.798;2022-07-23T00:42:48;6.80;;;5.57;;
7215;SDS011;3649;48.798;9.798;2022-07-23T00:45:15;6.50;;;5.37;;
7215;SDS011;3649;48.798;9.798;2022-07-23T00:47:43;6.20;;;5.70;;
7215;SDS011;3649;48.798;9.798;2022-07-23T00:50:10;6.17;;;5.07;;
7215;SDS011;3649;48.798;9.798;2022-07-23T00:52:37;6.63;;;6.13;;
7215;SDS011;3649;48.798;9.798;2022-07-23T00:55:06;6.60;;;5.90;;
7215;SDS011;3649;48.798;9.798;2022-07-23T00:57:34;6.10;;;5.60;;
7215;SDS011;3649;48.798;9.798;2022-07-23T01:00:01;6.87;;;6.07;;
7215;SDS011;3649;48.798;9.798;2022-07-23T01:02:30;6.53;;;6.03;;
7215;SDS011;3649;48.798;9.798;2022-07-23T01:04:56;6.00;;;5.40;;
7215;SDS011;3649;48.798;9.798;2022-07-23T01:07:23;6.13;;;5.47;;
7215;SDS011;3649;48.798;9.798;2022-07-23T01:09:51;6.10;;;5.27;;
7215;SDS011;3649;48.798;9.798;2022-07-23T01:12:18;6.03;;;5.43;;
7215;SDS011;3649;48.798;9.798;2022-07-23T01:14:45;6.50;;;5.90;;
7215;SDS011;3649;48.798;9.798;2022-07-23T01:17:19;7.30;;;5.90;;
7215;SDS011;3649;48.798;9.798;2022-07-23T01:19:45;6.43;;;5.93;;
7215;SDS011;3649;48.798;9.798;2022-07-23T01:22:12;7.10;;;6.50;;
7215;SDS011;3649;48.798;9.798;2022-07-23T01:24:43;14.27;;;6.70;;
7215;SDS011;3649;48.798;9.798;2022-07-23T01:27:11;7.00;;;6.30;;
7215;SDS011;3649;48.798;9.798;2022-07-23T01:29:39;7.83;;;7.00;;
7215;SDS011;3649;48.798;9.798;2022-07-23T01:32:06;7.77;;;6.70;;
7215;SDS011;3649;48.798;9.798;2022-07-23T01:34:33;7.63;;;6.87;;
7215;SDS011;3649;48.798;9.798;2022-07-23T01:37:00;7.20;;;6.50;;
7215;SDS011;3649;48.798;9.798;2022-07-23T01:39:26;7.77;;;6.23;;
7215;SDS011;3649;48.798;9.798;2022-07-23T01:41:53;12.60;;;6.37;;
7215;SDS011;3649;48.798;9.798;2022-07-23T01:44:20;6.90;;;6.20;;
7215;SDS011;3649;48.798;9.798;2022-07-23T01:46:47;6.20;;;5.70;;
7215;SDS011;3649;48.798;9.798;2022-07-23T01:49:14;7.50;;;6.77;;
7215;SDS011;3649;48.798;9.798;2022-07-23T01:51:41;7.00;;;6.40;;
7215;SDS011;3649;48.798;9.798;2022-07-23T01:54:30;7.73;;;7.00;;
7215;SDS011;3649;48.798;9.798;2022-07-23T01:56:58;8.30;;;6.33;;
7215;SDS011;3649;48.798;9.798;2022-07-23T01:59:26;7.27;;;6.57;;
7215;SDS011;3649;48.798;9.798;2022-07-23T02:01:53;9.83;;;7.03;;
7215;SDS011;3649;48.798;9.798;2022-07-23T02:04:24;8.00;;;7.30;;
7215;SDS011;3649;48.798;9.798;2022-07-23T02:06:52;7.07;;;6.47;;
7215;SDS011;3649;48.798;9.798;2022-07-23T02:09:19;7.40;;;6.53;;
7215;SDS011;3649;48.798;9.798;2022-07-23T02:11:46;7.60;;;6.90;;
7215;SDS011;3649;48.798;9.798;2022-07-23T02:14:13;7.57;;;6.40;;
7215;SDS011;3649;48.798;9.798;2022-07-23T02:16:40;7.67;;;6.57;;
7215;SDS011;3649;48.798;9.798;2022-07-23T02:19:07;6.60;;;6.10;;
7215;SDS011;3649;48.798;9.798;2022-07-23T02:21:34;7.43;;;6.73;;
7215;SDS011;3649;48.798;9.798;2022-07-23T02:24:01;9.40;;;6.90;;
7215;SDS011;3649;48.798;9.798;2022-07-23T02:26:28;8.13;;;7.37;;
7215;SDS011;3649;48.798;9.798;2022-07-23T02:28:54;7.50;;;6.80;;
7215;SDS011;3649;48.798;9.798;2022-07-23T02:31:21;7.73;;;7.03;;
7215;SDS011;3649;48.798;9.798;2022-07-23T02:33:48;5.70;;;5.20;;
7215;SDS011;3649;48.798;9.798;2022-07-23T02:36:15;6.07;;;5.47;;
7215;SDS011;3649;48.798;9.798;2022-07-23T02:38:42;6.93;;;5.83;;
7215;SDS011;3649;48.798;9.798;2022-07-23T02:41:09;5.93;;;5.43;;
7215;SDS011;3649;48.798;9.798;2022-07-23T02:43:36;6.23;;;5.63;;
7215;SDS011;3649;48.798;9.798;2022-07-23T02:46:02;5.50;;;4.97;;
7215;SDS011;3649;48.798;9.798;2022-07-23T02:48:29;5.60;;;5.07;;
7215;SDS011;3649;48.798;9.798;2022-07-23T02:50:59;8.63;;;5.30;;
7215;SDS011;3649;48.798;9.798;2022-07-23T02:53:26;5.83;;;5.03;;
7215;SDS011;3649;48.798;9.798;2022-07-23T02:55:53;6.50;;;5.20;;
7215;SDS011;3649;48.798;9.798;2022-07-23T02:58:20;5.43;;;4.93;;
7215;SDS011;3649;48.798;9.798;2022-07-23T03:00:47;5.90;;;5.20;;
7215;SDS011;3649;48.798;9.798;2022-07-23T03:03:14;6.30;;;5.13;;
7215;SDS011;3649;48.798;9.798;2022-07-23T03:05:41;5.43;;;4.97;;
7215;SDS011;3649;48.798;9.798;2022-07-23T03:08:08;6.03;;;5.63;;
7215;SDS011;3649;48.798;9.798;2022-07-23T03:10:35;6.43;;;5.83;;
7215;SDS011;3649;48.798;9.798;2022-07-23T03:13:01;7.47;;;6.00;;
7215;SDS011;3649;48.798;9.798;2022-07-23T03:15:28;7.17;;;6.00;;
7215;SDS011;3649;48.798;9.798;2022-07-23T03:17:55;6.33;;;5.77;;
7215;SDS011;3649;48.798;9.798;2022-07-23T03:20:22;6.37;;;5.77;;
7215;SDS011;3649;48.798;9.798;2022-07-23T03:22:49;8.73;;;6.03;;
7215;SDS011;3649;48.798;9.798;2022-07-23T03:25:16;6.70;;;6.00;;
7215;SDS011;3649;48.798;9.798;2022-07-23T03:27:42;6.30;;;5.80;;
7215;SDS011;3649;48.798;9.798;2022-07-23T03:30:11;7.47;;;5.60;;
7215;SDS011;3649;48.798;9.798;2022-07-23T03:32:38;6.13;;;5.30;;
7215;SDS011;3649;48.798;9.798;2022-07-23T03:35:05;5.37;;;4.97;;
7215;SDS011;3649;48.798;9.798;2022-07-23T03:37:34;6.97;;;5.20;;
7215;SDS011;3649;48.798;9.798;2022-07-23T03:40:01;5.67;;;5.10;;
7215;SDS011;3649;48.798;9.798;2022-07-23T03:42:28;6.70;;;4.80;;
7215;SDS011;3649;48.798;9.798;2022-07-23T03:44:55;5.43;;;4.93;;
7215;SDS011;3649;48.798;9.798;2022-07-23T03:47:22;5.83;;;5.20;;
7215;SDS011;3649;48.798;9.798;2022-07-23T03:49:48;5.83;;;5.07;;
7215;SDS011;3649;48.798;9.798;2022-07-23T03:52:15;5.20;;;4.70;;
7215;SDS011;3649;48.798;9.798;2022-07-23T03:54:42;6.47;;;5.33;;
7215;SDS011;3649;48.798;9.798;2022-07-23T03:57:09;6.07;;;5.47;;
7215;SDS011;3649;48.798;9.798;2022-07-23T03:59:36;5.73;;;5.23;;
7215;SDS011;3649;48.798;9.798;2022-07-23T04:02:03;5.63;;;5.13;;
7215;SDS011;3649;48.798;9.798;2022-07-23T04:04:30;8.20;;;5.10;;
7215;SDS011;3649;48.798;9.798;2022-07-23T04:06:57;6.13;;;5.53;;
7215;SDS011;3649;48.798;9.798;2022-07-23T04:09:23;5.53;;;5.00;;
7215;SDS011;3649;48.798;9.798;2022-07-23T04:11:50;5.83;;;5.33;;
7215;SDS011;3649;48.798;9.798;2022-07-23T04:14:17;7.17;;;5.17;;
7215;SDS011;3649;48.798;9.798;2022-07-23T04:16:44;5.53;;;5.13;;
7215;SDS011;3649;48.798;9.798;2022-07-23T04:19:11;6.03;;;5.20;;
7215;SDS011;3649;48.798;9.798;2022-07-23T04:21:38;5.77;;;5.00;;
7215;SDS011;3649;48.798;9.798;2022-07-23T04:24:05;6.43;;;5.20;;
7215;SDS011;3649;48.798;9.798;2022-07-23T04:26:32;6.77;;;5.07;;
7215;SDS011;3649;48.798;9.798;2022-07-23T04:28:59;6.63;;;5.53;;
7215;SDS011;3649;48.798;9.798;2022-07-23T04:31:27;5.90;;;5.37;;
7215;SDS011;3649;48.798;9.798;2022-07-23T04:34:00;6.43;;;5.77;;
7215;SDS011;3649;48.798;9.798;2022-07-23T04:36:27;7.83;;;5.33;;
7215;SDS011;3649;48.798;9.798;2022-07-23T04:38:54;8.03;;;5.63;;
7215;SDS011;3649;48.798;9.798;2022-07-23T04:41:21;6.13;;;5.53;;
7215;SDS011;3649;48.798;9.798;2022-07-23T04:43:47;6.03;;;5.50;;
7215;SDS011;3649;48.798;9.798;2022-07-23T04:46:14;7.07;;;5.23;;
7215;SDS011;3649;48.798;9.798;2022-07-23T04:48:42;5.50;;;5.00;;
7215;SDS011;3649;48.798;9.798;2022-07-23T04:51:09;7.27;;;5.43;;
7215;SDS011;3649;48.798;9.798;2022-07-23T04:53:37;5.40;;;4.73;;
7215;SDS011;3649;48.798;9.798;2022-07-23T04:56:04;6.40;;;5.20;;
7215;SDS011;3649;48.798;9.798;2022-07-23T04:58:31;9.63;;;5.60;;
7215;SDS011;3649;48.798;9.798;2022-07-23T05:00:58;8.70;;;4.70;;
7215;SDS011;3649;48.798;9.798;2022-07-23T05:03:25;6.13;;;5.13;;
7215;SDS011;3649;48.798;9.798;2022-07-23T05:05:52;6.30;;;4.77;;
7215;SDS011;3649;48.798;9.798;2022-07-23T05:08:19;5.77;;;5.33;;
7215;SDS011;3649;48.798;9.798;2022-07-23T05:10:46;6.77;;;5.07;;
7215;SDS011;3649;48.798;9.798;2022-07-23T05:13:16;5.93;;;5.33;;
7215;SDS011;3649;48.798;9.798;2022-07-23T05:15:43;5.93;;;5.17;;
7215;SDS011;3649;48.798;9.798;2022-07-23T05:18:10;6.60;;;4.73;;
7215;SDS011;3649;48.798;9.798;2022-07-23T05:20:37;6.23;;;5.63;;
7215;SDS011;3649;48.798;9.798;2022-07-23T05:23:04;5.77;;;5.27;;
7215;SDS011;3649;48.798;9.798;2022-07-23T05:25:33;5.40;;;4.90;;
7215;SDS011;3649;48.798;9.798;2022-07-23T05:27:59;5.13;;;4.73;;
7215;SDS011;3649;48.798;9.798;2022-07-23T05:30:26;5.67;;;4.97;;
7215;SDS011;3649;48.798;9.798;2022-07-23T05:32:53;5.40;;;5.00;;
7215;SDS011;3649;48.798;9.798;2022-07-23T05:35:20;6.10;;;5.20;;
7215;SDS011;3649;48.798;9.798;2022-07-23T05:37:47;5.77;;;5.27;;
7215;SDS011;3649;48.798;9.798;2022-07-23T05:40:14;5.97;;;5.33;;
7215;SDS011;3649;48.798;9.798;2022-07-23T05:42:41;5.60;;;5.03;;
7215;SDS011;3649;48.798;9.798;2022-07-23T05:45:10;8.20;;;5.10;;
7215;SDS011;3649;48.798;9.798;2022-07-23T05:47:44;5.77;;;5.23;;
7215;SDS011;3649;48.798;9.798;2022-07-23T05:50:15;4.90;;;4.37;;
7215;SDS011;3649;48.798;9.798;2022-07-23T05:52:42;4.87;;;4.47;;
7215;SDS011;3649;48.798;9.798;2022-07-23T05:55:09;5.03;;;4.43;;
7215;SDS011;3649;48.798;9.798;2022-07-23T05:57:38;4.57;;;4.10;;
7215;SDS011;3649;48.798;9.798;2022-07-23T06:00:07;5.93;;;4.57;;
7215;SDS011;3649;48.798;9.798;2022-07-23T06:02:36;5.80;;;4.60;;
7215;SDS011;3649;48.798;9.798;2022-07-23T06:05:04;4.03;;;3.73;;
7215;SDS011;3649;48.798;9.798;2022-07-23T06:07:34;5.70;;;5.03;;
7215;SDS011;3649;48.798;9.798;2022-07-23T06:10:01;5.90;;;4.63;;
7215;SDS011;3649;48.798;9.798;2022-07-23T06:12:28;4.60;;;4.17;;
7215;SDS011;3649;48.798;9.798;2022-07-23T06:14:55;5.20;;;4.80;;
7215;SDS011;3649;48.798;9.798;2022-07-23T06:17:21;5.33;;;4.83;;
7215;SDS011;3649;48.798;9.798;2022-07-23T06:19:51;5.10;;;4.60;;
7215;SDS011;3649;48.798;9.798;2022-07-23T06:22:18;7.53;;;4.93;;
7215;SDS011;3649;48.798;9.798;2022-07-23T06:24:45;5.17;;;4.67;;
7215;SDS011;3649;48.798;9.798;2022-07-23T06:27:12;6.57;;;5.30;;
7215;SDS011;3649;48.798;9.798;2022-07-23T06:29:40;6.53;;;5.27;;
7215;SDS011;3649;48.798;9.798;2022-07-23T06:32:07;5.13;;;4.70;;
7215;SDS011;3649;48.798;9.798;2022-07-23T06:34:34;5.00;;;4.50;;
7215;SDS011;3649;48.798;9.798;2022-07-23T06:37:01;5.43;;;4.90;;
7215;SDS011;3649;48.798;9.798;2022-07-23T06:39:29;8.27;;;5.03;;
7215;SDS011;3649;48.798;9.798;2022-07-23T06:41:56;5.50;;;5.10;;
7215;SDS011;3649;48.798;9.798;2022-07-23T06:44:26;6.50;;;5.90;;
7215;SDS011;3649;48.798;9.798;2022-07-23T06:46:53;5.63;;;5.20;;
7215;SDS011;3649;48.798;9.798;2022-07-23T06:49:20;5.57;;;5.03;;
7215;SDS011;3649;48.798;9.798;2022-07-23T06:51:47;5.57;;;5.00;;
7215;SDS011;3649;48.798;9.798;2022-07-23T06:54:14;5.03;;;4.63;;
7215;SDS011;3649;48.798;9.798;2022-07-23T06:56:41;5.40;;;4.90;;
7215;SDS011;3649;48.798;9.798;2022-07-23T06:59:09;5.53;;;4.67;;
7215;SDS011;3649;48.798;9.798;2022-07-23T07:01:36;7.20;;;5.33;;
7215;SDS011;3649;48.798;9.798;2022-07-23T07:04:03;5.73;;;5.13;;
7215;SDS011;3649;48.798;9.798;2022-07-23T07:06:30;5.63;;;4.73;;
7215;SDS011;3649;48.798;9.798;2022-07-23T07:08:57;5.63;;;5.13;;
7215;SDS011;3649;48.798;9.798;2022-07-23T07:11:25;7.13;;;5.53;;
7215;SDS011;3649;48.798;9.798;2022-07-23T07:13:51;12.83;;;5.10;;
7215;SDS011;3649;48.798;9.798;2022-07-23T07:16:18;5.57;;;5.03;;
7215;SDS011;3649;48.798;9.798;2022-07-23T07:18:46;5.13;;;4.73;;
7215;SDS011;3649;48.798;9.798;2022-07-23T07:21:12;6.20;;;4.93;;
7215;SDS011;3649;48.798;9.798;2022-07-23T07:23:39;5.03;;;4.63;;
7215;SDS011;3649;48.798;9.798;2022-07-23T07:26:06;6.57;;;5.27;;
7215;SDS011;3649;48.798;9.798;2022-07-23T07:28:33;5.30;;;4.90;;
7215;SDS011;3649;48.798;9.798;2022-07-23T07:31:00;8.30;;;5.20;;
7215;SDS011;3649;48.798;9.798;2022-07-23T07:33:29;5.63;;;5.13;;
7215;SDS011;3649;48.798;9.798;2022-07-23T07:35:56;5.43;;;4.93;;
7215;SDS011;3649;48.798;9.798;2022-07-23T07:38:22;5.67;;;5.17;;
7215;SDS011;3649;48.798;9.798;2022-07-23T07:40:50;6.03;;;5.43;;
7215;SDS011;3649;48.798;9.798;2022-07-23T07:43:17;5.47;;;5.00;;
7215;SDS011;3649;48.798;9.798;2022-07-23T07:45:44;4.67;;;4.27;;
7215;SDS011;3649;48.798;9.798;2022-07-23T07:48:11;5.67;;;5.17;;
7215;SDS011;3649;48.798;9.798;2022-07-23T07:50:37;5.70;;;5.30;;
7215;SDS011;3649;48.798;9.798;2022-07-23T07:53:05;7.00;;;5.53;;
7215;SDS011;3649;48.798;9.798;2022-07-23T07:55:31;6.23;;;5.73;;
7215;SDS011;3649;48.798;9.798;2022-07-23T07:57:58;6.10;;;5.50;;
7215;SDS011;3649;48.798;9.798;2022-07-23T08:00:27;6.40;;;5.00;;
7215;SDS011;3649;48.798;9.798;2022-07-23T08:02:55;6.10;;;5.60;;
7215;SDS011;3649;48.798;9.798;2022-07-23T08:05:25;5.17;;;4.77;;
7215;SDS011;3649;48.798;9.798;2022-07-23T08:07:57;5.33;;;4.83;;
7215;SDS011;3649;48.798;9.798;2022-07-23T08:10:26;5.67;;;5.07;;
7215;SDS011;3649;48.798;9.798;2022-07-23T08:12:54;6.27;;;5.77;;
7215;SDS011;3649;48.798;9.798;2022-07-23T08:15:26;5.20;;;4.80;;
7215;SDS011;3649;48.798;9.798;2022-07-23T08:17:54;5.43;;;4.93;;
7215;SDS011;3649;48.798;9.798;2022-07-23T08:20:22;6.10;;;4.90;;
7215;SDS011;3649;48.798;9.798;2022-07-23T08:22:52;6.23;;;5.63;;
7215;SDS011;3649;48.798;9.798;2022-07-23T08:25:24;6.17;;;5.47;;
7215;SDS011;3649;48.798;9.798;2022-07-23T08:27:53;6.50;;;5.60;;
7215;SDS011;3649;48.798;9.798;2022-07-23T08:30:20;5.37;;;4.80;;
7215;SDS011;3649;48.798;9.798;2022-07-23T08:33:01;5.00;;;4.70;;
7215;SDS011;3649;48.798;9.798;2022-07-23T08:37:58;8.27;;;4.93;;
7215;SDS011;3649;48.798;9.798;2022-07-23T08:40:26;5.30;;;4.80;;
7215;SDS011;3649;48.798;9.798;2022-07-23T08:42:55;6.23;;;4.80;;
7215;SDS011;3649;48.798;9.798;2022-07-23T08:45:24;5.47;;;5.07;;
7215;SDS011;3649;48.798;9.798;2022-07-23T08:47:53;5.83;;;5.33;;
7215;SDS011;3649;48.798;9.798;2022-07-23T08:50:21;5.97;;;4.80;;
7215;SDS011;3649;48.798;9.798;2022-07-23T08:52:50;5.63;;;4.97;;
7215;SDS011;3649;48.798;9.798;2022-07-23T08:55:18;5.70;;;4.60;;
7215;SDS011;3649;48.798;9.798;2022-07-23T08:57:51;5.40;;;4.87;;
7215;SDS011;3649;48.798;9.798;2022-07-23T09:00:19;4.87;;;4.43;;
7215;SDS011;3649;48.798;9.798;2022-07-23T09:02:47;5.53;;;5.13;;
7215;SDS011;3649;48.798;9.798;2022-07-23T09:05:17;5.73;;;5.13;;
7215;SDS011;3649;48.798;9.798;2022-07-23T09:10:45;5.00;;;4.60;;
7215;SDS011;3649;48.798;9.798;2022-07-23T09:18:57;6.00;;;4.87;;
7215;SDS011;3649;48.798;9.798;2022-07-23T09:21:34;5.83;;;5.00;;
7215;SDS011;3649;48.798;9.798;2022-07-23T09:24:06;5.73;;;5.17;;
7215;SDS011;3649;48.798;9.798;2022-07-23T09:29:18;6.13;;;5.13;;
7215;SDS011;3649;48.798;9.798;2022-07-23T09:31:46;5.80;;;4.80;;
7215;SDS011;3649;48.798;9.798;2022-07-23T09:34:27;6.40;;;5.80;;
7215;SDS011;3649;48.798;9.798;2022-07-23T09:37:10;5.63;;;4.97;;
7215;SDS011;3649;48.798;9.798;2022-07-23T09:39:39;5.80;;;5.30;;
7215;SDS011;3649;48.798;9.798;2022-07-23T09:42:21;5.57;;;4.70;;
7215;SDS011;3649;48.798;9.798;2022-07-23T09:44:55;6.40;;;5.13;;
7215;SDS011;3649;48.798;9.798;2022-07-23T09:47:25;7.37;;;5.27;;
7215;SDS011;3649;48.798;9.798;2022-07-23T09:50:11;5.73;;;5.23;;
7215;SDS011;3649;48.798;9.798;2022-07-23T09:52:44;4.90;;;4.53;;
7215;SDS011;3649;48.798;9.798;2022-07-23T09:55:14;5.40;;;5.00;;
7215;SDS011;3649;48.798;9.798;2022-07-23T09:57:42;5.93;;;5.37;;
7215;SDS011;3649;48.798;9.798;2022-07-23T10:00:22;6.57;;;4.87;;
7215;SDS011;3649;48.798;9.798;2022-07-23T10:02:49;5.20;;;4.73;;
7215;SDS011;3649;48.798;9.798;2022-07-23T10:05:17;4.93;;;4.53;;
7215;SDS011;3649;48.798;9.798;2022-07-23T10:07:46;5.50;;;5.10;;
7215;SDS011;3649;48.798;9.798;2022-07-23T10:10:18;9.53;;;5.63;;
7215;SDS011;3649;48.798;9.798;2022-07-23T10:12:47;7.43;;;4.93;;
7215;SDS011;3649;48.798;9.798;2022-07-23T10:45:35;5.13;;;4.63;;
7215;SDS011;3649;48.798;9.798;2022-07-23T10:48:23;5.07;;;4.77;;
7215;SDS011;3649;48.798;9.798;2022-07-23T10:51:07;5.83;;;5.37;;
7215;SDS011;3649;48.798;9.798;2022-07-23T10:59:23;5.20;;;4.80;;
7215;SDS011;3649;48.798;9.798;2022-07-23T11:01:50;5.47;;;5.07;;
7215;SDS011;3649;48.798;9.798;2022-07-23T11:04:18;6.07;;;5.53;;
7215;SDS011;3649;48.798;9.798;2022-07-23T11:09:25;5.80;;;5.30;;
7215;SDS011;3649;48.798;9.798;2022-07-23T11:17:34;5.70;;;5.07;;
7215;SDS011;3649;48.798;9.798;2022-07-23T11:25:08;5.07;;;4.67;;
7215;SDS011;3649;48.798;9.798;2022-07-23T11:27:43;5.30;;;4.90;;
7215;SDS011;3649;48.798;9.798;2022-07-23T11:30:37;5.20;;;4.30;;
7215;SDS011;3649;48.798;9.798;2022-07-23T11:35:42;4.73;;;4.43;;
7215;SDS011;3649;48.798;9.798;2022-07-23T11:38:20;6.30;;;5.10;;
7215;SDS011;3649;48.798;9.798;2022-07-23T11:40:50;5.80;;;5.00;;
7215;SDS011;3649;48.798;9.798;2022-07-23T11:43:19;5.40;;;5.00;;
7215;SDS011;3649;48.798;9.798;2022-07-23T11:45:47;5.57;;;5.07;;
7215;SDS011;3649;48.798;9.798;2022-07-23T11:50:46;5.07;;;4.67;;
7215;SDS011;3649;48.798;9.798;2022-07-23T11:53:20;5.17;;;4.63;;
7215;SDS011;3649;48.798;9.798;2022-07-23T11:56:18;5.93;;;5.30;;
7215;SDS011;3649;48.798;9.798;2022-07-23T11:58:53;6.10;;;4.57;;
7215;SDS011;3649;48.798;9.798;2022-07-23T12:01:21;4.97;;;4.57;;
7215;SDS011;3649;48.798;9.798;2022-07-23T12:03:49;5.30;;;4.80;;
7215;SDS011;3649;48.798;9.798;2022-07-23T12:06:17;5.20;;;4.80;;
7215;SDS011;3649;48.798;9.798;2022-07-23T12:08:44;5.00;;;4.70;;
7215;SDS011;3649;48.798;9.798;2022-07-23T12:11:11;4.43;;;4.13;;
7215;SDS011;3649;48.798;9.798;2022-07-23T12:13:38;5.17;;;4.67;;
7215;SDS011;3649;48.798;9.798;2022-07-23T12:16:06;4.77;;;4.37;;
7215;SDS011;3649;48.798;9.798;2022-07-23T12:18:34;4.83;;;4.03;;
7215;SDS011;3649;48.798;9.798;2022-07-23T12:21:03;4.87;;;4.47;;
7215;SDS011;3649;48.798;9.798;2022-07-23T12:23:33;4.30;;;4.00;;
7215;SDS011;3649;48.798;9.798;2022-07-23T12:26:00;8.10;;;4.20;;
7215;SDS011;3649;48.798;9.798;2022-07-23T12:28:29;4.80;;;4.40;;
7215;SDS011;3649;48.798;9.798;2022-07-23T12:30:58;5.50;;;4.07;;
7215;SDS011;3649;48.798;9.798;2022-07-23T12:33:27;4.93;;;4.53;;
7215;SDS011;3649;48.798;9.798;2022-07-23T12:36:06;4.80;;;4.40;;
7215;SDS011;3649;48.798;9.798;2022-07-23T12:38:47;4.60;;;4.20;;
7215;SDS011;3649;48.798;9.798;2022-07-23T12:41:17;5.80;;;4.77;;
7215;SDS011;3649;48.798;9.798;2022-07-23T12:43:45;5.93;;;4.10;;
7215;SDS011;3649;48.798;9.798;2022-07-23T12:46:13;4.57;;;4.13;;
7215;SDS011;3649;48.798;9.798;2022-07-23T12:51:24;4.97;;;4.57;;
7215;SDS011;3649;48.798;9.798;2022-07-23T12:53:54;5.17;;;4.67;;
7215;SDS011;3649;48.798;9.798;2022-07-23T12:56:31;5.20;;;4.70;;
7215;SDS011;3649;48.798;9.798;2022-07-23T13:01:31;4.60;;;4.30;;
7215;SDS011;3649;48.798;9.798;2022-07-23T13:04:04;4.83;;;4.40;;
7215;SDS011;3649;48.798;9.798;2022-07-23T13:09:11;4.53;;;4.23;;
7215;SDS011;3649;48.798;9.798;2022-07-23T13:11:41;5.10;;;4.70;;
7215;SDS011;3649;48.798;9.798;2022-07-23T13:14:09;4.63;;;4.23;;
7215;SDS011;3649;48.798;9.798;2022-07-23T13:16:38;5.17;;;4.77;;
7215;SDS011;3649;48.798;9.798;2022-07-23T13:19:06;5.10;;;4.60;;
7215;SDS011;3649;48.798;9.798;2022-07-23T13:21:37;5.20;;;4.40;;
7215;SDS011;3649;48.798;9.798;2022-07-23T13:24:06;4.67;;;4.27;;
7215;SDS011;3649;48.798;9.798;2022-07-23T13:26:35;4.67;;;4.27;;
7215;SDS011;3649;48.798;9.798;2022-07-23T13:29:02;4.90;;;4.50;;
7215;SDS011;3649;48.798;9.798;2022-07-23T13:31:35;4.37;;;4.07;;
7215;SDS011;3649;48.798;9.798;2022-07-23T13:34:04;4.57;;;4.27;;
7215;SDS011;3649;48.798;9.798;2022-07-23T13:36:33;4.67;;;4.27;;
7215;SDS011;3649;48.798;9.798;2022-07-23T13:39:01;4.53;;;4.23;;
7215;SDS011;3649;48.798;9.798;2022-07-23T13:41:30;4.67;;;4.30;;
7215;SDS011;3649;48.798;9.798;2022-07-23T13:43:56;4.93;;;4.53;;
7215;SDS011;3649;48.798;9.798;2022-07-23T13:46:24;4.93;;;4.63;;
7215;SDS011;3649;48.798;9.798;2022-07-23T13:48:52;5.07;;;4.67;;
7215;SDS011;3649;48.798;9.798;2022-07-23T13:51:19;4.50;;;4.20;;
7215;SDS011;3649;48.798;9.798;2022-07-23T13:53:49;5.00;;;4.60;;
7215;SDS011;3649;48.798;9.798;2022-07-23T13:56:16;4.67;;;4.27;;
7215;SDS011;3649;48.798;9.798;2022-07-23T13:58:43;4.93;;;4.53;;
7215;SDS011;3649;48.798;9.798;2022-07-23T14:01:10;4.83;;;4.53;;
7215;SDS011;3649;48.798;9.798;2022-07-23T14:03:37;5.20;;;4.80;;
7215;SDS011;3649;48.798;9.798;2022-07-23T14:06:05;5.13;;;4.73;;
7215;SDS011;3649;48.798;9.798;2022-07-23T14:08:42;8.83;;;4.93;;
7215;SDS011;3649;48.798;9.798;2022-07-23T14:11:11;5.60;;;5.10;;
7215;SDS011;3649;48.798;9.798;2022-07-23T14:13:38;5.03;;;4.63;;
7215;SDS011;3649;48.798;9.798;2022-07-23T14:16:06;4.87;;;4.47;;
7215;SDS011;3649;48.798;9.798;2022-07-23T14:18:33;4.90;;;4.40;;
7215;SDS011;3649;48.798;9.798;2022-07-23T14:21:01;5.63;;;5.13;;
7215;SDS011;3649;48.798;9.798;2022-07-23T14:23:29;5.40;;;5.00;;
7215;SDS011;3649;48.798;9.798;2022-07-23T14:25:56;5.30;;;4.90;;
7215;SDS011;3649;48.798;9.798;2022-07-23T14:28:23;5.30;;;4.70;;
7215;SDS011;3649;48.798;9.798;2022-07-23T14:30:50;5.27;;;4.83;;
7215;SDS011;3649;48.798;9.798;2022-07-23T14:33:17;4.80;;;4.30;;
7215;SDS011;3649;48.798;9.798;2022-07-23T14:35:44;5.47;;;4.97;;
7215;SDS011;3649;48.798;9.798;2022-07-23T14:38:11;5.13;;;4.73;;
7215;SDS011;3649;48.798;9.798;2022-07-23T14:40:39;5.77;;;5.20;;
7215;SDS011;3649;48.798;9.798;2022-07-23T14:43:07;5.23;;;4.83;;
7215;SDS011;3649;48.798;9.798;2022-07-23T14:45:36;5.00;;;4.67;;
7215;SDS011;3649;48.798;9.798;2022-07-23T14:48:03;5.63;;;5.13;;
7215;SDS011;3649;48.798;9.798;2022-07-23T14:50:30;5.20;;;4.80;;
7215;SDS011;3649;48.798;9.798;2022-07-23T14:52:57;5.97;;;4.80;;
7215;SDS011;3649;48.798;9.798;2022-07-23T14:55:24;5.23;;;4.83;;
7215;SDS011;3649;48.798;9.798;2022-07-23T14:57:51;5.67;;;5.20;;
7215;SDS011;3649;48.798;9.798;2022-07-23T15:00:18;5.33;;;4.80;;
7215;SDS011;3649;48.798;9.798;2022-07-23T15:02:49;6.07;;;5.57;;
7215;SDS011;3649;48.798;9.798;2022-07-23T15:05:20;5.47;;;4.87;;
7215;SDS011;3649;48.798;9.798;2022-07-23T15:07:47;6.50;;;5.03;;
7215;SDS011;3649;48.798;9.798;2022-07-23T15:10:15;5.67;;;4.80;;
7215;SDS011;3649;48.798;9.798;2022-07-23T15:12:47;6.27;;;5.80;;
7215;SDS011;3649;48.798;9.798;2022-07-23T15:15:14;6.40;;;5.83;;
7215;SDS011;3649;48.798;9.798;2022-07-23T15:17:43;6.47;;;5.47;;
7215;SDS011;3649;48.798;9.798;2022-07-23T15:20:10;6.13;;;5.60;;
7215;SDS011;3649;48.798;9.798;2022-07-23T15:22:40;6.07;;;5.57;;
7215;SDS011;3649;48.798;9.798;2022-07-23T15:25:07;5.70;;;5.23;;
7215;SDS011;3649;48.798;9.798;2022-07-23T15:27:37;5.90;;;5.27;;
7215;SDS011;3649;48.798;9.798;2022-07-23T15:30:04;9.23;;;5.70;;
7215;SDS011;3649;48.798;9.798;2022-07-23T15:32:33;6.83;;;6.20;;
7215;SDS011;3649;48.798;9.798;2022-07-23T15:35:00;6.10;;;5.57;;
7215;SDS011;3649;48.798;9.798;2022-07-23T15:37:28;5.73;;;5.27;;
7215;SDS011;3649;48.798;9.798;2022-07-23T15:39:56;6.50;;;5.90;;
7215;SDS011;3649;48.798;9.798;2022-07-23T15:42:23;6.40;;;5.77;;
7215;SDS011;3649;48.798;9.798;2022-07-23T15:44:50;6.20;;;5.40;;
7215;SDS011;3649;48.798;9.798;2022-07-23T15:47:17;6.80;;;5.73;;
7215;SDS011;3649;48.798;9.798;2022-07-23T15:49:45;6.70;;;5.43;;
7215;SDS011;3649;48.798;9.798;2022-07-23T15:52:12;6.20;;;5.70;;
7215;SDS011;3649;48.798;9.798;2022-07-23T15:54:39;6.40;;;5.50;;
7215;SDS011;3649;48.798;9.798;2022-07-23T15:57:06;6.77;;;6.10;;
7215;SDS011;3649;48.798;9.798;2022-07-23T15:59:34;7.27;;;5.70;;
7215;SDS011;3649;48.798;9.798;2022-07-23T16:02:01;8.07;;;5.70;;
7215;SDS011;3649;48.798;9.798;2022-07-23T16:04:28;6.03;;;5.53;;
7215;SDS011;3649;48.798;9.798;2022-07-23T16:06:55;6.10;;;5.60;;
7215;SDS011;3649;48.798;9.798;2022-07-23T16:09:22;6.07;;;5.57;;
7215;SDS011;3649;48.798;9.798;2022-07-23T16:11:50;6.10;;;5.50;;
7215;SDS011;3649;48.798;9.798;2022-07-23T16:14:16;6.00;;;5.50;;
7215;SDS011;3649;48.798;9.798;2022-07-23T16:16:43;6.13;;;5.63;;
7215;SDS011;3649;48.798;9.798;2022-07-23T16:19:10;9.53;;;5.87;;
7215;SDS011;3649;48.798;9.798;2022-07-23T16:21:37;6.50;;;5.80;;
7215;SDS011;3649;48.798;9.798;2022-07-23T16:24:05;6.70;;;6.10;;
7215;SDS011;3649;48.798;9.798;2022-07-23T16:26:32;7.57;;;5.83;;
7215;SDS011;3649;48.798;9.798;2022-07-23T16:28:59;5.87;;;5.37;;
7215;SDS011;3649;48.798;9.798;2022-07-23T16:31:26;5.77;;;5.37;;
7215;SDS011;3649;48.798;9.798;2022-07-23T16:33:53;5.73;;;5.33;;
7215;SDS011;3649;48.798;9.798;2022-07-23T16:36:21;5.60;;;5.10;;
7215;SDS011;3649;48.798;9.798;2022-07-23T16:38:49;7.03;;;5.33;;